createdAt,value
2023-05-25T08:44:42.632Z,4.43
2023-05-25T08:47:11.244Z,4.82
2023-05-25T08:49:39.060Z,5.15
2023-05-25T08:52:07.081Z,4.53
2023-05-25T08:54:37.662Z,4.18
2023-05-25T08:57:13.844Z,4.10
2023-05-25T09:00:07.567Z,3.38
2023-05-25T09:03:18.357Z,4.03
2023-05-25T09:05:46.410Z,3.80
2023-05-25T09:08:14.143Z,3.90
2023-05-25T09:10:41.508Z,4.28
2023-05-25T09:15:38.273Z,5.68
2023-05-25T09:18:06.298Z,5.40
2023-05-25T09:20:33.318Z,5.40
2023-05-25T09:23:00.668Z,6.30
2023-05-25T09:25:29.291Z,5.70
2023-05-25T09:28:00.213Z,5.53
2023-05-25T09:30:33.250Z,5.32
2023-05-25T09:33:13.824Z,5.53
2023-05-25T09:35:41.209Z,5.85
2023-05-25T09:38:08.505Z,5.45
2023-05-25T09:40:36.189Z,6.32
2023-05-25T09:43:04.195Z,6.45
2023-05-25T09:45:31.859Z,6.32
2023-05-25T09:47:59.868Z,5.95
2023-05-25T09:50:30.139Z,6.68
2023-05-25T09:53:00.211Z,5.55
2023-05-25T09:55:36.822Z,6.57
2023-05-25T09:58:11.324Z,5.53
2023-05-25T10:00:38.326Z,5.75
2023-05-25T10:03:08.198Z,5.45
2023-05-25T10:05:35.108Z,5.95
2023-05-25T10:08:02.186Z,6.03
2023-05-25T10:10:31.721Z,6.00
2023-05-25T10:12:59.439Z,6.70
2023-05-25T10:15:26.522Z,5.30
2023-05-25T10:17:55.361Z,5.50
2023-05-25T10:20:26.078Z,5.18
2023-05-25T10:23:06.389Z,5.45
2023-05-25T10:25:40.613Z,4.72
2023-05-25T10:28:23.559Z,5.40
2023-05-25T10:30:51.384Z,4.88
2023-05-25T10:33:19.477Z,5.72
2023-05-25T10:36:02.364Z,5.78
2023-05-25T10:38:33.853Z,5.53
2023-05-25T10:41:01.237Z,6.18
2023-05-25T10:43:28.278Z,5.47
2023-05-25T10:45:55.628Z,4.78
2023-05-25T10:48:24.009Z,5.63
2023-05-25T10:50:51.826Z,4.78
2023-05-25T10:53:21.268Z,4.55
2023-05-25T10:55:54.227Z,4.65
2023-05-25T10:58:22.690Z,5.18
2023-05-25T11:01:02.701Z,4.40
2023-05-25T11:03:45.548Z,4.53
2023-05-25T11:06:15.517Z,3.60
2023-05-25T11:08:50.770Z,4.28
2023-05-25T11:11:17.898Z,4.43
2023-05-25T11:13:45.877Z,4.03
2023-05-25T11:16:27.922Z,3.78
2023-05-25T11:18:58.129Z,4.32
2023-05-25T11:21:28.036Z,4.50
2023-05-25T11:24:03.245Z,4.55
2023-05-25T11:26:31.466Z,4.97
2023-05-25T11:28:59.358Z,5.68
2023-05-25T11:31:37.104Z,4.70
2023-05-25T11:34:06.800Z,4.80
2023-05-25T11:36:36.139Z,4.43
2023-05-25T11:39:14.272Z,5.60
2023-05-25T11:41:55.752Z,5.00
2023-05-25T11:44:30.062Z,4.93
2023-05-25T11:46:58.506Z,4.93
2023-05-25T11:49:28.121Z,5.50
2023-05-25T11:51:56.884Z,4.90
2023-05-25T11:54:25.464Z,4.88
2023-05-25T11:56:52.835Z,5.22
2023-05-25T11:59:20.755Z,5.10
2023-05-25T12:01:59.456Z,5.35
2023-05-25T12:04:26.706Z,5.65
2023-05-25T12:06:53.883Z,4.80
2023-05-25T12:09:24.645Z,4.28
2023-05-25T12:11:51.946Z,4.18
2023-05-25T12:14:19.007Z,3.78
2023-05-25T12:16:46.178Z,4.07
2023-05-25T12:19:13.207Z,4.65
2023-05-25T12:21:41.179Z,5.22
2023-05-25T12:24:08.740Z,5.05
2023-05-25T12:26:57.988Z,4.70
2023-05-25T12:29:26.271Z,4.90
2023-05-25T12:31:53.151Z,4.80
2023-05-25T12:34:21.197Z,5.18
2023-05-25T12:36:54.480Z,5.07
2023-05-25T12:39:24.664Z,5.22
2023-05-25T12:41:54.758Z,5.13
2023-05-25T12:44:31.685Z,5.00
2023-05-25T12:47:21.119Z,5.30
2023-05-25T12:49:51.456Z,4.65
2023-05-25T12:52:38.338Z,5.68
2023-05-25T12:55:27.712Z,5.85
2023-05-25T12:57:58.830Z,6.65
2023-05-25T13:00:36.653Z,6.90
2023-05-25T13:03:04.855Z,5.82
2023-05-25T13:05:34.299Z,5.82
2023-05-25T13:08:02.234Z,6.82
2023-05-25T13:10:31.051Z,6.38
2023-05-25T13:12:58.725Z,7.07
2023-05-25T13:15:27.228Z,6.30
2023-05-25T13:17:55.092Z,6.70
2023-05-25T13:20:23.382Z,5.70
2023-05-25T13:22:51.418Z,5.50
2023-05-25T13:25:18.717Z,6.00
2023-05-25T13:27:48.052Z,5.85
2023-05-25T13:30:15.553Z,5.47
2023-05-25T13:32:46.539Z,5.80
2023-05-25T13:35:22.960Z,5.45
2023-05-25T13:37:49.773Z,5.78
2023-05-25T13:40:17.025Z,5.57
2023-05-25T13:42:44.042Z,5.72
2023-05-25T13:45:11.275Z,5.53
2023-05-25T13:47:38.209Z,5.20
2023-05-25T13:50:06.334Z,4.65
2023-05-25T13:52:33.381Z,5.70
2023-05-25T13:55:01.175Z,5.10
2023-05-25T13:57:28.348Z,5.00
2023-05-25T13:59:55.282Z,5.07
2023-05-25T14:02:22.129Z,4.50
2023-05-25T14:04:48.929Z,5.63
2023-05-25T14:07:15.784Z,4.32
2023-05-25T14:09:42.838Z,4.15
2023-05-25T14:12:10.241Z,3.50
2023-05-25T14:14:38.126Z,3.90
2023-05-25T14:17:05.174Z,3.78
2023-05-25T14:19:33.173Z,4.18
2023-05-25T14:22:12.612Z,3.78
2023-05-25T14:24:41.694Z,3.85
2023-05-25T14:27:08.728Z,4.15
2023-05-25T14:29:35.720Z,4.05
2023-05-25T14:32:02.635Z,3.83
2023-05-25T14:34:29.764Z,4.55
2023-05-25T14:36:56.908Z,4.07
2023-05-25T14:39:23.797Z,4.40
2023-05-25T14:41:50.864Z,4.32
2023-05-25T14:44:17.776Z,4.07
2023-05-25T14:46:45.028Z,4.05
2023-05-25T14:49:13.801Z,4.15
2023-05-25T14:51:40.770Z,4.28
2023-05-25T14:54:08.286Z,4.10
2023-05-25T14:56:35.335Z,4.18
2023-05-25T14:59:02.266Z,4.13
2023-05-25T15:01:29.852Z,3.97
2023-05-25T15:03:57.136Z,3.75
2023-05-25T15:06:24.090Z,3.40
2023-05-25T15:08:51.150Z,3.13
2023-05-25T15:11:18.410Z,3.40
2023-05-25T15:13:45.674Z,3.85
2023-05-25T15:16:13.358Z,3.67
2023-05-25T15:18:40.235Z,3.30
2023-05-25T15:21:07.132Z,3.35
2023-05-25T15:23:33.997Z,3.60
2023-05-25T15:26:08.379Z,3.42
2023-05-25T15:28:35.258Z,3.60
2023-05-25T15:31:03.335Z,3.05
2023-05-25T15:33:47.155Z,3.53
2023-05-25T15:36:16.962Z,3.15
2023-05-25T15:38:44.720Z,2.67
2023-05-25T15:41:15.173Z,3.22
2023-05-25T15:43:42.438Z,3.47
2023-05-25T15:46:09.611Z,2.83
2023-05-25T15:48:36.407Z,3.17
2023-05-25T15:51:03.495Z,2.95
2023-05-25T15:53:30.939Z,3.17
2023-05-25T15:55:57.852Z,2.58
2023-05-25T15:58:24.638Z,3.25
2023-05-25T16:00:51.501Z,2.80
2023-05-25T16:03:18.413Z,3.03
2023-05-25T16:05:45.448Z,3.60
2023-05-25T16:08:14.213Z,2.90
2023-05-25T16:10:41.072Z,2.83
2023-05-25T16:13:07.847Z,2.67
2023-05-25T16:15:34.733Z,2.63
2023-05-25T16:18:01.604Z,3.03
2023-05-25T16:20:28.478Z,3.33
2023-05-25T16:22:55.455Z,3.22
2023-05-25T16:25:22.564Z,3.50
2023-05-25T16:27:49.536Z,3.00
2023-05-25T16:30:16.502Z,2.92
2023-05-25T16:32:43.399Z,3.17
2023-05-25T16:35:10.619Z,2.95
2023-05-25T16:37:37.752Z,3.30
2023-05-25T16:40:04.872Z,3.15
2023-05-25T16:42:32.011Z,3.20
2023-05-25T16:44:58.864Z,3.35
2023-05-25T16:47:26.077Z,3.05
2023-05-25T16:49:52.948Z,2.85
2023-05-25T16:52:20.073Z,2.78
2023-05-25T16:54:46.921Z,2.80
2023-05-25T16:57:13.928Z,3.05
2023-05-25T16:59:41.143Z,2.53
2023-05-25T17:02:08.064Z,3.03
2023-05-25T17:04:34.905Z,2.88
2023-05-25T17:07:01.866Z,2.83
2023-05-25T17:09:28.923Z,2.70
2023-05-25T17:11:59.612Z,3.05
2023-05-25T17:14:26.546Z,2.47
2023-05-25T17:16:53.974Z,2.88
2023-05-25T17:19:20.829Z,2.80
2023-05-25T17:21:48.403Z,3.17
2023-05-25T17:24:18.356Z,2.95
2023-05-25T17:26:46.697Z,2.90
2023-05-25T17:29:13.469Z,3.22
2023-05-25T17:31:40.349Z,3.17
2023-05-25T17:34:07.108Z,2.90
2023-05-25T17:36:34.001Z,3.17
2023-05-25T17:39:00.933Z,2.80
2023-05-25T17:41:27.858Z,3.03
2023-05-25T17:43:54.748Z,3.20
2023-05-25T17:46:21.823Z,3.13
2023-05-25T17:48:48.791Z,2.65
2023-05-25T17:51:15.735Z,2.83
2023-05-25T17:53:42.519Z,2.80
2023-05-25T17:56:09.484Z,2.88
2023-05-25T17:58:37.399Z,2.75
2023-05-25T18:01:04.734Z,3.13
2023-05-25T18:03:31.838Z,2.63
2023-05-25T18:05:58.772Z,2.75
2023-05-25T18:08:25.667Z,3.13
2023-05-25T18:10:53.237Z,2.85
2023-05-25T18:13:20.318Z,2.88
2023-05-25T18:15:47.285Z,3.30
2023-05-25T18:18:15.935Z,3.30
2023-05-25T18:20:43.370Z,2.75
2023-05-25T18:23:10.240Z,2.75
2023-05-25T18:25:37.156Z,2.58
2023-05-25T18:28:03.986Z,2.63
2023-05-25T18:30:30.849Z,2.40
2023-05-25T18:32:57.750Z,3.03
2023-05-25T18:35:24.582Z,3.08
2023-05-25T18:37:51.450Z,3.28
2023-05-25T18:40:18.336Z,3.20
2023-05-25T18:42:45.225Z,3.08
2023-05-25T18:45:12.352Z,2.72
2023-05-25T18:47:39.423Z,2.75
2023-05-25T18:50:07.467Z,2.88
2023-05-25T18:52:34.431Z,3.30
2023-05-25T18:55:01.657Z,2.80
2023-05-25T18:57:29.004Z,3.60
2023-05-25T18:59:55.833Z,3.00
2023-05-25T19:02:22.763Z,3.15
2023-05-25T19:04:49.750Z,2.67
2023-05-25T19:07:16.554Z,2.85
2023-05-25T19:09:43.538Z,3.03
2023-05-25T19:12:10.464Z,2.92
2023-05-25T19:14:37.562Z,2.78
2023-05-25T19:17:04.410Z,2.95
2023-05-25T19:19:31.346Z,3.15
2023-05-25T19:21:58.221Z,2.92
2023-05-25T19:24:25.065Z,3.15
2023-05-25T19:26:51.991Z,3.15
2023-05-25T19:29:19.231Z,3.45
2023-05-25T19:31:46.190Z,3.08
2023-05-25T19:34:13.004Z,3.20
2023-05-25T19:36:39.975Z,3.28
2023-05-25T19:39:07.173Z,3.10
